createdAt,value
2023-03-29T00:02:05.294Z,54.53
2023-03-29T00:05:29.197Z,54.65
2023-03-29T00:08:38.880Z,54.29
2023-03-29T00:11:45.292Z,54.32
2023-03-29T00:15:21.775Z,55.03
2023-03-29T00:18:25.138Z,55.00
2023-03-29T00:21:32.189Z,55.16
2023-03-29T00:24:36.636Z,55.84
2023-03-29T00:27:40.986Z,55.98
2023-03-29T00:30:56.171Z,56.88
2023-03-29T00:34:01.010Z,58.08
2023-03-29T00:37:09.913Z,58.89
2023-03-29T00:40:13.613Z,59.56
2023-03-29T00:43:21.137Z,60.61
2023-03-29T00:46:32.493Z,61.37
2023-03-29T00:49:40.094Z,61.75
2023-03-29T00:52:48.830Z,62.10
2023-03-29T00:55:58.012Z,61.92
2023-03-29T00:59:24.784Z,62.71
2023-03-29T01:07:03.639Z,64.23
2023-03-29T01:10:25.973Z,64.26
2023-03-29T01:13:39.461Z,65.20
2023-03-29T01:16:43.015Z,66.43
2023-03-29T01:19:58.458Z,66.64
2023-03-29T01:23:27.040Z,67.24
2023-03-29T01:26:38.926Z,66.73
2023-03-29T01:30:05.569Z,66.41
2023-03-29T01:33:21.558Z,66.87
2023-03-29T01:36:54.781Z,66.87
2023-03-29T01:40:13.322Z,67.20
2023-03-29T01:43:41.953Z,67.23
2023-03-29T01:47:11.343Z,67.15
2023-03-29T01:50:38.806Z,68.45
2023-03-29T01:53:57.554Z,68.89
2023-03-29T01:57:12.748Z,70.56
2023-03-29T02:00:21.356Z,71.53
2023-03-29T02:03:31.381Z,72.54
2023-03-29T02:06:56.124Z,73.39
2023-03-29T02:09:59.717Z,73.16
2023-03-29T02:13:04.828Z,74.77
2023-03-29T02:16:14.633Z,75.12
2023-03-29T02:19:20.077Z,75.45
2023-03-29T02:23:09.285Z,76.73
2023-03-29T02:30:44.228Z,76.43
2023-03-29T02:34:16.246Z,75.37
2023-03-29T02:37:21.924Z,74.51
2023-03-29T02:40:32.865Z,73.51
2023-03-29T02:43:58.032Z,73.02
2023-03-29T02:47:09.252Z,73.79
2023-03-29T02:50:17.920Z,73.93
2023-03-29T02:53:32.346Z,73.40
2023-03-29T02:56:49.286Z,74.36
2023-03-29T02:59:57.258Z,74.82
2023-03-29T03:03:12.202Z,76.12
2023-03-29T03:06:15.661Z,77.49
2023-03-29T03:09:20.026Z,77.54
2023-03-29T03:12:24.098Z,78.34
2023-03-29T03:15:31.803Z,78.82
2023-03-29T03:18:35.169Z,79.13
2023-03-29T03:21:38.866Z,79.50
2023-03-29T03:24:46.939Z,80.48
2023-03-29T03:28:10.653Z,80.86
2023-03-29T03:31:34.737Z,81.91
2023-03-29T03:34:42.532Z,83.24
2023-03-29T03:37:48.524Z,83.48
2023-03-29T03:40:59.542Z,83.38
2023-03-29T03:44:02.801Z,83.65
2023-03-29T03:47:07.188Z,83.29
2023-03-29T03:50:49.121Z,82.84
2023-03-29T03:53:53.994Z,83.53
2023-03-29T03:57:04.019Z,83.75
2023-03-29T04:00:19.565Z,84.41
2023-03-29T04:03:27.337Z,85.35
2023-03-29T04:06:36.328Z,84.80
2023-03-29T04:09:46.069Z,84.94
2023-03-29T04:13:13.701Z,85.41
2023-03-29T04:16:18.734Z,84.71
2023-03-29T04:19:26.562Z,85.32
2023-03-29T04:22:30.365Z,85.67
2023-03-29T04:25:34.449Z,85.86
2023-03-29T04:28:40.687Z,86.51
2023-03-29T04:31:57.153Z,86.69
2023-03-29T04:35:10.658Z,86.37
2023-03-29T04:38:13.919Z,86.64
2023-03-29T04:41:20.562Z,86.53
2023-03-29T04:44:24.623Z,87.47
2023-03-29T04:47:30.179Z,86.75
2023-03-29T04:50:33.525Z,84.53
2023-03-29T04:53:38.263Z,82.89
2023-03-29T04:56:45.581Z,80.89
2023-03-29T04:59:54.155Z,79.59
2023-03-29T05:02:59.921Z,78.85
2023-03-29T05:06:15.924Z,77.99
2023-03-29T05:09:22.257Z,77.06
2023-03-29T05:12:58.471Z,75.71
2023-03-29T05:16:04.686Z,74.90
2023-03-29T05:19:12.463Z,74.67
2023-03-29T05:22:16.883Z,74.54
2023-03-29T05:25:21.689Z,74.51
2023-03-29T05:28:24.961Z,74.17
2023-03-29T05:31:29.669Z,73.76
2023-03-29T05:34:34.237Z,72.92
2023-03-29T05:37:39.192Z,72.81
2023-03-29T05:40:43.282Z,71.83
2023-03-29T05:43:48.745Z,71.10
2023-03-29T05:46:55.086Z,71.03
2023-03-29T05:50:18.756Z,70.23
2023-03-29T05:53:25.703Z,70.01
2023-03-29T05:56:32.124Z,69.58
2023-03-29T05:59:38.710Z,69.35
2023-03-29T06:02:43.984Z,68.93
2023-03-29T06:05:49.770Z,67.79
2023-03-29T06:09:15.089Z,66.61
2023-03-29T06:12:22.360Z,66.41
2023-03-29T06:15:25.868Z,64.23
2023-03-29T06:18:34.599Z,64.25
2023-03-29T06:22:00.151Z,63.70
2023-03-29T06:25:09.362Z,64.55
2023-03-29T06:28:18.334Z,63.39
2023-03-29T06:31:25.273Z,63.69
2023-03-29T06:34:28.938Z,61.79
2023-03-29T06:37:34.125Z,61.28
2023-03-29T06:40:48.425Z,60.34
2023-03-29T06:44:13.513Z,60.08
2023-03-29T06:47:49.292Z,58.02
2023-03-29T06:50:55.008Z,58.19
2023-03-29T06:54:19.250Z,55.85
2023-03-29T06:57:25.582Z,55.21
2023-03-29T07:00:35.900Z,54.83
2023-03-29T07:03:39.534Z,52.37
2023-03-29T07:06:48.527Z,53.04
2023-03-29T07:09:56.686Z,53.61
2023-03-29T07:13:23.712Z,55.14
2023-03-29T07:16:29.353Z,52.40
2023-03-29T07:20:09.779Z,52.79
2023-03-29T07:23:17.181Z,52.17
2023-03-29T07:26:46.096Z,51.29
2023-03-29T07:30:25.873Z,52.86
2023-03-29T07:33:31.262Z,50.89
2023-03-29T07:36:38.723Z,52.00
2023-03-29T07:39:43.052Z,52.34
2023-03-29T07:43:13.640Z,49.30
2023-03-29T07:46:48.465Z,49.44
2023-03-29T07:49:55.008Z,50.58
2023-03-29T07:53:18.710Z,48.92
2023-03-29T07:56:33.755Z,47.07
2023-03-29T07:59:39.646Z,46.92
2023-03-29T08:03:13.348Z,48.54
2023-03-29T08:06:38.866Z,47.12
2023-03-29T08:09:43.590Z,47.47
2023-03-29T08:12:50.596Z,45.85
2023-03-29T08:15:55.653Z,44.30
2023-03-29T08:19:03.729Z,44.29
2023-03-29T08:22:09.719Z,42.99
2023-03-29T08:25:18.726Z,41.89
2023-03-29T08:28:29.279Z,41.63
2023-03-29T08:31:38.723Z,40.92
2023-03-29T08:34:41.922Z,40.44
2023-03-29T08:37:49.324Z,38.55
2023-03-29T08:40:54.088Z,39.60
2023-03-29T08:44:14.035Z,39.68
2023-03-29T08:48:02.696Z,38.68
2023-03-29T08:51:23.984Z,39.36
2023-03-29T08:54:52.128Z,36.94
2023-03-29T08:58:26.246Z,35.11
2023-03-29T09:01:53.357Z,33.54
2023-03-29T09:05:29.549Z,35.80
2023-03-29T09:08:39.412Z,33.26
2023-03-29T09:12:18.303Z,33.17
2023-03-29T09:15:44.466Z,32.32
2023-03-29T09:19:00.103Z,33.02
2023-03-29T09:22:09.431Z,31.78
2023-03-29T09:25:27.820Z,32.48
2023-03-29T09:29:23.165Z,32.54
2023-03-29T09:32:36.236Z,31.07
2023-03-29T09:36:18.755Z,30.21
2023-03-29T09:39:43.155Z,32.13
2023-03-29T09:42:54.078Z,31.40
2023-03-29T09:46:05.033Z,30.88
2023-03-29T09:49:18.405Z,32.83
2023-03-29T09:52:24.555Z,31.40
2023-03-29T09:55:55.523Z,30.55
2023-03-29T10:00:05.287Z,30.38
2023-03-29T10:03:24.424Z,32.69
2023-03-29T10:06:31.615Z,34.51
2023-03-29T10:09:36.554Z,35.34
2023-03-29T10:12:54.352Z,32.90
2023-03-29T10:16:21.298Z,34.31
2023-03-29T10:19:36.400Z,34.77
2023-03-29T10:23:00.231Z,33.70
2023-03-29T10:26:23.402Z,33.76
2023-03-29T10:29:28.077Z,33.17
2023-03-29T10:32:35.834Z,34.67
2023-03-29T10:35:54.105Z,35.90
2023-03-29T10:39:05.926Z,35.05
2023-03-29T10:42:28.846Z,35.29
2023-03-29T10:45:37.625Z,34.75
2023-03-29T10:48:46.936Z,35.07
2023-03-29T10:51:52.491Z,35.90
2023-03-29T10:55:02.804Z,35.63
2023-03-29T10:58:40.320Z,33.41
2023-03-29T11:02:34.109Z,36.91
2023-03-29T11:06:01.411Z,36.05
2023-03-29T11:09:56.303Z,34.60
2023-03-29T11:13:09.219Z,35.73
2023-03-29T11:17:29.058Z,33.37
2023-03-29T11:21:12.686Z,33.33
2023-03-29T11:25:20.573Z,30.92
2023-03-29T11:29:19.601Z,33.47
2023-03-29T11:32:33.766Z,32.43
2023-03-29T11:36:29.780Z,29.48
2023-03-29T11:40:05.859Z,30.21
2023-03-29T11:43:45.352Z,32.33
2023-03-29T11:47:00.519Z,32.12
2023-03-29T11:50:22.483Z,33.00
2023-03-29T11:54:25.292Z,32.06
2023-03-29T11:57:45.574Z,31.33
2023-03-29T12:01:32.026Z,35.01
2023-03-29T12:04:57.701Z,34.30
2023-03-29T12:08:25.506Z,33.30
2023-03-29T12:12:03.875Z,32.54
2023-03-29T12:15:28.532Z,33.23
2023-03-29T12:19:08.472Z,33.82
2023-03-29T12:22:38.840Z,34.15
2023-03-29T12:26:19.172Z,34.91
2023-03-29T12:30:23.924Z,36.68
2023-03-29T12:34:11.797Z,35.12
2023-03-29T12:38:05.556Z,37.23
2023-03-29T12:41:28.918Z,37.98
2023-03-29T12:45:36.748Z,38.05
2023-03-29T12:49:30.266Z,37.48
2023-03-29T12:53:15.703Z,36.55
2023-03-29T12:57:00.551Z,39.14
2023-03-29T13:00:45.847Z,38.38
2023-03-29T13:04:22.920Z,38.18
2023-03-29T13:07:56.215Z,39.73
2023-03-29T13:11:29.565Z,39.74
2023-03-29T13:15:26.046Z,39.39
2023-03-29T13:23:00.050Z,38.03
2023-03-29T13:26:35.255Z,37.88
2023-03-29T13:30:32.905Z,38.08
2023-03-29T13:34:02.222Z,37.17
2023-03-29T13:37:58.994Z,38.83
2023-03-29T13:41:43.492Z,41.47
2023-03-29T13:45:26.558Z,41.87
2023-03-29T13:49:25.270Z,41.71
2023-03-29T13:53:18.550Z,40.34
2023-03-29T13:56:57.141Z,40.31
2023-03-29T14:00:52.392Z,40.39
2023-03-29T14:04:24.178Z,41.03
2023-03-29T14:07:49.127Z,39.68
2023-03-29T14:11:23.943Z,39.13
2023-03-29T14:15:02.034Z,40.71
2023-03-29T14:18:23.729Z,40.77
2023-03-29T14:21:42.566Z,40.94
2023-03-29T14:25:19.426Z,40.84
2023-03-29T14:28:36.184Z,40.91
2023-03-29T14:32:16.909Z,39.73
2023-03-29T14:35:51.905Z,38.81
2023-03-29T14:39:43.709Z,39.99
2023-03-29T14:43:11.676Z,40.49
2023-03-29T14:46:51.047Z,40.63
2023-03-29T14:50:20.753Z,40.24
2023-03-29T14:54:03.598Z,40.16
2023-03-29T14:57:40.073Z,39.96
2023-03-29T15:01:17.683Z,39.44
2023-03-29T15:04:41.954Z,39.03
2023-03-29T15:08:19.762Z,39.11
2023-03-29T15:12:04.198Z,39.85
2023-03-29T15:15:27.920Z,41.56
2023-03-29T15:18:53.722Z,41.08
2023-03-29T15:22:16.856Z,41.18
2023-03-29T15:26:22.814Z,41.35
2023-03-29T15:30:15.761Z,41.14
2023-03-29T15:33:48.875Z,41.33
2023-03-29T15:37:06.577Z,41.82
2023-03-29T15:40:44.315Z,40.82
2023-03-29T15:44:10.928Z,41.89
2023-03-29T15:48:28.425Z,42.61
2023-03-29T15:51:57.618Z,41.69
2023-03-29T15:55:35.706Z,42.12
2023-03-29T15:58:59.437Z,43.14
2023-03-29T16:02:04.814Z,43.31
2023-03-29T16:05:44.548Z,43.82
2023-03-29T16:08:58.265Z,43.76
2023-03-29T16:12:42.523Z,44.69
2023-03-29T16:16:21.309Z,44.08
2023-03-29T16:19:46.178Z,44.54
2023-03-29T16:23:34.570Z,45.06
2023-03-29T16:34:30.333Z,45.50
2023-03-29T16:37:59.635Z,46.52
2023-03-29T16:42:06.893Z,46.64
2023-03-29T16:45:29.664Z,47.23
2023-03-29T16:52:44.964Z,47.83
2023-03-29T16:56:08.816Z,47.47
2023-03-29T16:59:45.206Z,48.00
2023-03-29T17:03:32.909Z,49.00
2023-03-29T17:29:24.173Z,57.24
2023-03-29T17:33:00.872Z,58.56
2023-03-29T17:40:33.345Z,58.97
2023-03-29T17:44:12.415Z,59.79
2023-03-29T17:47:34.883Z,60.12
2023-03-29T17:50:57.437Z,60.70
2023-03-29T17:58:30.645Z,60.76
2023-03-29T18:02:08.259Z,60.93
2023-03-29T18:10:08.606Z,61.36
2023-03-29T18:21:02.172Z,61.92
2023-03-29T18:24:41.176Z,62.11
2023-03-29T18:32:40.100Z,62.55
2023-03-29T18:40:25.224Z,62.59
2023-03-29T18:47:55.049Z,63.40
2023-03-29T18:51:33.330Z,63.71
2023-03-29T18:55:08.273Z,64.20
2023-03-29T18:59:27.369Z,64.97
2023-03-29T19:07:30.141Z,66.01
2023-03-29T19:14:26.495Z,65.71
2023-03-29T19:26:13.559Z,66.06
2023-03-29T19:33:17.501Z,66.43
2023-03-29T19:36:47.837Z,66.92
2023-03-29T19:40:28.872Z,66.70
2023-03-29T19:43:57.686Z,67.16
2023-03-29T19:51:09.114Z,67.44
2023-03-29T19:54:39.922Z,67.96
2023-03-29T19:59:03.367Z,67.84
2023-03-29T20:03:14.396Z,67.08
2023-03-29T20:06:45.318Z,67.95
2023-03-29T20:10:29.084Z,68.57
2023-03-29T20:14:30.809Z,68.47
2023-03-29T20:18:04.494Z,67.80
2023-03-29T20:22:00.768Z,68.07
2023-03-29T20:26:09.008Z,68.24
2023-03-29T20:29:57.703Z,68.35
2023-03-29T20:33:32.372Z,69.37
2023-03-29T20:37:14.653Z,69.67
2023-03-29T20:41:09.621Z,70.48
2023-03-29T20:44:50.554Z,70.67
2023-03-29T20:48:32.244Z,70.93
2023-03-29T20:52:23.223Z,70.76
2023-03-29T20:56:51.295Z,71.15
2023-03-29T21:00:52.189Z,71.26
2023-03-29T21:05:17.520Z,70.55
2023-03-29T21:09:06.605Z,71.30
2023-03-29T21:13:14.968Z,71.50
2023-03-29T21:17:24.733Z,72.03
2023-03-29T21:21:10.484Z,72.97
2023-03-29T21:25:02.275Z,73.28
2023-03-29T21:28:43.131Z,72.95
2023-03-29T21:32:52.733Z,73.36
2023-03-29T21:36:43.754Z,73.43
2023-03-29T21:40:23.043Z,73.61
2023-03-29T21:43:33.026Z,74.53
2023-03-29T21:47:32.624Z,74.53
2023-03-29T21:50:59.305Z,75.46
2023-03-29T21:58:27.508Z,75.61
2023-03-29T22:02:39.061Z,76.05
2023-03-29T22:06:08.653Z,77.06
2023-03-29T22:09:52.393Z,77.63
2023-03-29T22:14:10.023Z,77.94
2023-03-29T22:18:03.183Z,78.16
2023-03-29T22:21:54.903Z,78.97
2023-03-29T22:25:22.943Z,80.39
2023-03-29T22:29:21.440Z,80.66
2023-03-29T22:32:49.782Z,81.17
2023-03-29T22:36:38.828Z,81.97
2023-03-29T22:48:31.387Z,84.21
2023-03-29T22:52:35.342Z,85.13
2023-03-29T22:56:02.618Z,86.43
2023-03-29T22:59:58.913Z,86.29
2023-03-29T23:03:24.213Z,86.93
2023-03-29T23:07:02.609Z,87.54
2023-03-29T23:10:55.897Z,87.51
2023-03-29T23:14:47.290Z,87.65
2023-03-29T23:22:37.403Z,89.59
2023-03-29T23:33:53.166Z,89.51
2023-03-29T23:38:07.595Z,90.18
2023-03-29T23:42:20.674Z,90.04
2023-03-29T23:46:08.343Z,89.89
2023-03-29T23:50:05.686Z,90.05
2023-03-29T23:53:42.155Z,89.99
2023-03-29T23:57:48.984Z,89.85
